Terminal Aerodrome Forecast
Issued by NWS

Home | Current Version | Previous Version | Text Only | Print | Product List | Glossary On
Versions: 1 2 3 4 5 6 7 8 9 10 11 12 13 14 15 16 17
364
FTAK31 PAJN 202321
TAFAWG
TAF
PAWG 202321Z 2100/2124 08008KT P6SM BKN050 OVC080
     FM210300 08012KT P6SM VCSH BKN040 OVC070
     FM210600 11010G20KT P6SM VCSH SCT030 OVC040
     FM211200 10010KT 6SM -SN BKN030 OVC040
     FM211800 09007KT P6SM VCSH OVC050
      AMD LTD TO CLD VIS AND WIND 2106/2115=

USA.gov is the U.S. government's official web portal to all federal, state and local government web resources and services.